Time;durP1;ratioP1;P1;durP2;ratioP2;P2;SDS_P1;SDS_P2;PMS_P1;PMS_P2;Temp;Humidity;BMP_temperature;BMP_pressure;BME280_temperature;BME280_humidity;BME280_pressure;Samples;Min_cycle;Max_cycle;Signal;HPM_P1;HPM_P2
2024/03/29 01:43:28;;;;;;;1.83;0.70;;;;;;;-145.69;38.23;52171.09;5073533;28;20203;-81
2024/03/29 01:45:56;;;;;;;0.57;0.50;;;;;;;-145.69;39.24;52135.47;5074879;28;20242;-81
2024/03/29 01:48:24;;;;;;;0.97;0.60;;;;;;;-145.69;39.60;52139.41;5074451;28;20302;-81
2024/03/29 01:50:52;;;;;;;1.20;0.70;;;;;;;-145.69;37.47;52121.59;5074199;28;20245;-80
2024/03/29 01:53:20;;;;;;;0.60;0.60;;;;;;;-145.69;36.57;52115.66;5074438;28;20199;-82
2024/03/29 01:55:47;;;;;;;0.57;0.57;;;;;;;-145.69;37.70;52143.38;5074535;28;20264;-83
2024/03/29 01:58:14;;;;;;;0.73;0.50;;;;;;;-145.69;37.81;52115.66;5074150;28;20198;-81
2024/03/29 02:00:49;;;;;;;0.88;0.50;;;;;;;-145.69;36.57;52123.56;5074223;28;20195;-81
2024/03/29 02:03:16;;;;;;;0.57;0.55;;;;;;;-145.69;35.83;52147.34;5074499;28;20209;-83
2024/03/29 02:05:43;;;;;;;0.40;0.40;;;;;;;-145.69;35.30;52101.78;5074403;28;20256;-82
2024/03/29 02:08:10;;;;;;;0.68;0.50;;;;;;;-145.69;34.97;52139.41;5074347;28;20654;-83
2024/03/29 02:10:37;;;;;;;0.82;0.60;;;;;;;-145.69;36.24;52091.88;5074023;28;20230;-84
2024/03/29 02:13:03;;;;;;;2.20;0.55;;;;;;;-145.69;34.86;52115.66;5073456;28;20276;-83
2024/03/29 02:15:30;;;;;;;0.40;0.40;;;;;;;-145.69;36.53;52117.63;5074096;28;20701;-83
2024/03/29 02:17:58;;;;;;;1.38;0.50;;;;;;;-145.69;35.84;52095.84;5073783;28;20203;-82
2024/03/29 02:20:25;;;;;;;0.63;0.57;;;;;;;-145.69;35.80;52127.53;5073552;28;20199;-83
2024/03/29 02:22:55;;;;;;;0.73;0.60;;;;;;;-145.69;33.75;52127.53;5073976;28;20210;-82
2024/03/29 02:25:23;;;;;;;0.50;0.50;;;;;;;-145.69;35.02;52119.63;5074201;28;20198;-82
2024/03/29 02:27:50;;;;;;;1.05;0.60;;;;;;;-145.69;34.72;52115.66;5073545;28;20608;-81
2024/03/29 02:30:17;;;;;;;0.50;0.50;;;;;;;-145.69;36.11;52123.56;5074000;28;20313;-81
2024/03/29 02:32:43;;;;;;;0.50;0.50;;;;;;;-145.69;36.16;52113.66;5073489;28;20199;-81
2024/03/29 02:35:09;;;;;;;0.50;0.50;;;;;;;-145.69;35.93;52089.91;5073634;28;20690;-81
2024/03/29 02:37:37;;;;;;;0.47;0.47;;;;;;;-145.69;35.96;52117.63;5078033;28;20204;-82
2024/03/29 02:40:03;;;;;;;0.50;0.50;;;;;;;-145.69;36.33;52091.88;5093896;28;20213;-80
2024/03/29 02:42:32;;;;;;;1.00;0.60;;;;;;;-145.69;37.91;52119.63;5093918;28;20198;-81
2024/03/29 02:44:58;;;;;;;0.73;0.50;;;;;;;-145.69;35.45;52103.78;5074486;28;20283;-82
2024/03/29 02:47:24;;;;;;;0.77;0.50;;;;;;;-145.69;36.01;52119.63;5073062;28;20198;-82
2024/03/29 02:49:50;;;;;;;0.77;0.57;;;;;;;-145.69;35.92;52083.97;5065333;28;20230;-81
2024/03/29 02:52:16;;;;;;;0.40;0.40;;;;;;;-145.69;35.18;52097.84;5073740;28;20207;-81
2024/03/29 02:54:43;;;;;;;1.02;0.40;;;;;;;-145.69;35.90;52111.69;5072391;28;20194;-81
2024/03/29 02:57:09;;;;;;;1.92;0.60;;;;;;;-145.69;36.27;52083.97;5073048;28;20210;-83
2024/03/29 02:59:36;;;;;;;1.65;0.60;;;;;;;-145.69;36.74;52099.81;5073327;28;20208;-82
2024/03/29 03:02:02;;;;;;;0.40;0.40;;;;;;;-145.69;34.85;52115.66;5073163;28;20198;-81
2024/03/29 03:04:29;;;;;;;0.70;0.40;;;;;;;-145.69;36.29;52080.00;5073249;28;20209;-81
2024/03/29 03:06:55;;;;;;;0.40;0.40;;;;;;;-145.69;34.13;52103.78;5073125;28;20249;-81
2024/03/29 03:12:07;;;;;;;0.52;0.50;;;;;;;-145.69;35.93;52121.59;5073103;28;20203;-80
2024/03/29 03:14:32;;;;;;;1.33;0.60;;;;;;;-145.69;34.04;52133.47;5072781;28;20207;-81
2024/03/29 03:17:00;;;;;;;0.45;0.45;;;;;;;-145.69;33.13;52119.63;5072124;28;20249;-81
2024/03/29 03:19:25;;;;;;;0.88;0.50;;;;;;;-145.69;33.76;52123.56;5073128;28;20253;-81
2024/03/29 03:21:52;;;;;;;0.77;0.50;;;;;;;-145.69;35.46;52153.28;5072736;28;20207;-81
2024/03/29 03:24:18;;;;;;;0.70;0.50;;;;;;;-145.69;36.04;52119.63;5072549;28;20198;-81
2024/03/29 03:26:43;;;;;;;0.63;0.53;;;;;;;-145.69;36.80;52141.41;5072554;28;20202;-82
2024/03/29 03:29:10;;;;;;;0.97;0.60;;;;;;;-145.69;37.02;52119.63;5072489;28;20242;-82
2024/03/29 03:31:35;;;;;;;0.90;0.60;;;;;;;-145.69;37.96;52155.25;5072568;28;20530;-82
2024/03/29 03:34:03;;;;;;;0.83;0.60;;;;;;;-145.69;39.11;52194.88;5072694;28;20252;-83
2024/03/29 03:36:28;;;;;;;0.77;0.70;;;;;;;-145.69;39.63;52141.41;5072754;28;20653;-80
2024/03/29 03:38:55;;;;;;;2.07;0.77;;;;;;;-145.69;39.79;52159.22;5088122;28;20259;-82
2024/03/29 03:41:21;;;;;;;1.40;0.80;;;;;;;-145.69;41.11;52161.19;5086553;28;20202;-82
2024/03/29 03:43:47;;;;;;;5.23;1.00;;;;;;;-145.69;41.26;52165.16;5072559;28;20249;-82
2024/03/29 03:46:13;;;;;;;1.73;0.60;;;;;;;-145.69;41.62;52159.22;5072910;28;20206;-83
2024/03/29 03:48:39;;;;;;;0.93;0.80;;;;;;;-145.69;41.80;52155.25;5072236;28;20202;-82
2024/03/29 03:51:06;;;;;;;1.07;0.80;;;;;;;-145.69;41.87;52169.13;5072733;28;20215;-83
2024/03/29 03:53:32;;;;;;;1.10;0.60;;;;;;;-145.69;40.75;52159.22;5072135;28;20657;-83
2024/03/29 03:55:58;;;;;;;1.00;0.63;;;;;;;-145.69;41.20;52139.41;5072629;28;20255;-81
2024/03/29 03:58:24;;;;;;;0.60;0.60;;;;;;;-145.69;40.85;52190.91;5072241;28;20207;-81
2024/03/29 04:00:49;;;;;;;1.67;0.70;;;;;;;-145.69;40.61;52167.13;5072633;28;20199;-82
2024/03/29 04:03:16;;;;;;;1.00;0.67;;;;;;;-145.69;42.14;52186.94;5072292;28;20222;-81
2024/03/29 04:05:42;;;;;;;1.83;0.80;;;;;;;-145.69;41.94;52169.13;5071990;28;20667;-82
2024/03/29 04:08:09;;;;;;;1.23;0.87;;;;;;;-145.69;42.36;52171.09;5080816;28;20186;-83
2024/03/29 04:10:38;;;;;;;0.60;0.60;;;;;;;-145.69;42.41;52159.22;5092300;28;20226;-82
2024/03/29 04:13:04;;;;;;;0.60;0.60;;;;;;;-145.69;42.10;52167.13;5092452;28;20220;-82
2024/03/29 04:15:32;;;;;;;0.70;0.70;;;;;;;-145.69;43.02;52206.75;5092507;28;20234;-82
2024/03/29 04:17:58;;;;;;;0.60;0.60;;;;;;;-145.69;43.47;52139.41;5084492;28;20217;-82
2024/03/29 04:20:23;;;;;;;0.40;0.40;;;;;;;-145.69;43.23;52182.97;5071535;28;20434;-81
2024/03/29 04:22:50;;;;;;;0.90;0.70;;;;;;;-145.69;42.73;52143.38;5072168;28;20562;-81
2024/03/29 04:25:17;;;;;;;0.80;0.60;;;;;;;-145.69;41.21;52159.22;5072326;28;20211;-82
2024/03/29 04:27:43;;;;;;;0.60;0.60;;;;;;;-145.69;39.85;52159.22;5071860;28;20194;-82
2024/03/29 04:30:09;;;;;;;0.50;0.50;;;;;;;-145.69;39.04;52181.00;5072077;28;20222;-82
2024/03/29 04:32:36;;;;;;;3.97;0.80;;;;;;;-145.69;38.54;52155.25;5072065;28;20685;-82
2024/03/29 04:35:01;;;;;;;0.70;0.53;;;;;;;-145.69;37.96;52127.53;5072528;28;20257;-83
2024/03/29 04:37:27;;;;;;;1.43;0.60;;;;;;;-145.69;38.58;52157.25;5075857;28;20210;-82
2024/03/29 04:39:54;;;;;;;0.70;0.50;;;;;;;-145.69;37.03;52131.50;5082928;28;20585;-82
2024/03/29 04:42:22;;;;;;;0.50;0.50;;;;;;;-145.69;37.54;52125.56;5075928;28;20206;-82
2024/03/29 04:44:48;;;;;;;0.60;0.60;;;;;;;-145.69;36.44;52143.38;5075638;28;20207;-82
2024/03/29 04:47:15;;;;;;;0.40;0.40;;;;;;;-145.69;36.92;52145.34;5075653;28;20230;-82
2024/03/29 04:49:41;;;;;;;0.73;0.57;;;;;;;-145.69;36.13;52161.19;5070592;28;20230;-82
2024/03/29 04:52:08;;;;;;;0.50;0.50;;;;;;;-145.69;35.47;52125.56;5075832;28;20202;-82
2024/03/29 04:54:35;;;;;;;0.80;0.50;;;;;;;-145.69;35.00;52127.53;5075594;28;20264;-82
2024/03/29 04:57:03;;;;;;;1.70;0.80;;;;;;;-145.69;34.80;52139.41;5075873;28;20209;-82
2024/03/29 04:59:31;;;;;;;1.33;0.60;;;;;;;-145.69;35.19;52127.53;5076055;28;20206;-82
2024/03/29 05:01:57;;;;;;;0.60;0.50;;;;;;;-145.69;36.35;52119.63;5075435;28;20202;-81
2024/03/29 05:04:26;;;;;;;0.87;0.53;;;;;;;-145.69;36.39;52137.44;5075332;28;20285;-82
2024/03/29 05:06:53;;;;;;;0.50;0.50;;;;;;;-145.69;37.50;52151.28;5074983;28;20198;-82
2024/03/29 05:09:19;;;;;;;0.50;0.50;;;;;;;-145.69;37.49;52169.13;5075561;28;20313;-81
2024/03/29 05:11:46;;;;;;;1.50;0.60;;;;;;;-145.69;37.52;52177.03;5075635;28;20222;-82
2024/03/29 05:14:13;;;;;;;0.40;0.40;;;;;;;-145.69;38.06;52147.34;5075324;28;20205;-82
2024/03/29 05:16:41;;;;;;;0.90;0.50;;;;;;;-145.69;38.02;52143.38;5075173;28;20230;-82
2024/03/29 05:19:08;;;;;;;1.00;0.63;;;;;;;-145.69;38.68;52143.38;5075168;28;20199;-82
2024/03/29 05:21:34;;;;;;;2.83;0.70;;;;;;;-145.69;38.45;52147.34;5074913;28;20209;-82
2024/03/29 05:24:00;;;;;;;0.67;0.60;;;;;;;-145.69;38.72;52153.28;5075046;28;20234;-83
2024/03/29 05:26:27;;;;;;;0.67;0.67;;;;;;;-145.69;39.72;52184.97;5075257;28;20207;-83
2024/03/29 05:28:57;;;;;;;0.50;0.50;;;;;;;-145.69;40.83;52159.22;5075298;28;20260;-84
2024/03/29 05:31:23;;;;;;;0.70;0.60;;;;;;;-145.69;40.08;52141.41;5074224;28;20250;-83
2024/03/29 05:33:51;;;;;;;0.40;0.40;;;;;;;-145.69;39.98;52151.28;5074928;28;20570;-82
2024/03/29 05:36:18;;;;;;;0.97;0.40;;;;;;;-145.69;39.71;52151.28;5074730;28;20198;-83
2024/03/29 05:38:45;;;;;;;2.83;0.50;;;;;;;-145.69;39.02;52159.22;5074923;28;20560;-82
2024/03/29 05:41:12;;;;;;;1.93;0.70;;;;;;;-145.69;37.45;52147.34;5074269;28;20234;-82
2024/03/29 05:43:39;;;;;;;0.60;0.50;;;;;;;-145.69;36.93;52171.09;5074803;28;20339;-83
2024/03/29 05:46:06;;;;;;;1.50;0.60;;;;;;;-145.69;36.38;52145.34;5074875;28;20198;-82
2024/03/29 05:48:32;;;;;;;0.50;0.40;;;;;;;-145.69;34.13;52117.63;5074656;28;20585;-82
2024/03/29 05:51:00;;;;;;;0.40;0.40;;;;;;;-145.69;36.59;52123.56;5074624;28;20237;-82
2024/03/29 05:53:26;;;;;;;6.27;0.70;;;;;;;-145.69;34.80;52085.94;5074731;28;20214;-82
2024/03/29 05:55:53;;;;;;;0.67;0.43;;;;;;;-145.69;33.60;52143.38;5074593;28;20199;-83
2024/03/29 05:58:20;;;;;;;0.67;0.47;;;;;;;-145.69;34.99;52101.78;5074487;28;20256;-82
2024/03/29 06:00:48;;;;;;;0.60;0.60;;;;;;;-145.69;33.18;52085.94;5073872;28;20199;-82
2024/03/29 06:03:14;;;;;;;0.95;0.63;;;;;;;-145.69;33.23;52095.84;5074589;28;20203;-81
2024/03/29 06:05:41;;;;;;;0.63;0.50;;;;;;;-145.69;31.84;52103.78;5074568;28;20198;-81
2024/03/29 06:08:09;;;;;;;0.65;0.43;;;;;;;-145.69;32.53;52083.97;5073997;28;20195;-82
2024/03/29 06:10:36;;;;;;;0.82;0.50;;;;;;;-145.69;32.80;52111.69;5073929;28;20604;-81
2024/03/29 06:13:07;;;;;;;0.90;0.45;;;;;;;-145.69;31.46;52080.00;5074451;28;20199;-81
2024/03/29 06:18:18;;;;;;;0.77;0.50;;;;;;;-145.69;31.41;52093.88;5073505;28;20206;-81
2024/03/29 06:20:45;;;;;;;0.57;0.40;;;;;;;-145.69;31.65;52095.84;5073675;28;20596;-81
2024/03/29 06:23:13;;;;;;;0.75;0.40;;;;;;;-145.69;31.66;52089.91;5073457;28;20657;-81
2024/03/29 06:25:40;;;;;;;2.03;0.57;;;;;;;-145.69;32.05;52091.88;5074064;28;20194;-81
2024/03/29 06:28:07;;;;;;;0.40;0.40;;;;;;;-145.69;32.34;52080.00;5073484;28;20260;-82
2024/03/29 06:30:33;;;;;;;0.50;0.43;;;;;;;-145.69;32.87;52087.94;5073756;28;20225;-81
2024/03/29 06:33:02;;;;;;;0.45;0.38;;;;;;;-145.69;32.65;52080.00;5073259;28;20726;-83
2024/03/29 06:35:28;;;;;;;0.50;0.40;;;;;;;-145.69;33.57;52050.31;5073002;28;20592;-83
2024/03/29 06:37:55;;;;;;;1.75;0.82;;;;;;;-145.69;33.62;52068.13;5073138;28;20205;-83
2024/03/29 06:40:23;;;;;;;1.02;0.70;;;;;;;-145.69;34.13;52068.13;5073833;28;20228;-81
2024/03/29 06:42:49;;;;;;;0.50;0.50;;;;;;;-145.69;33.88;52076.03;5073695;28;20228;-82
2024/03/29 06:45:16;;;;;;;0.30;0.30;;;;;;;-145.69;34.79;52060.22;5073554;28;20202;-81
2024/03/29 06:47:42;;;;;;;0.55;0.43;;;;;;;-145.69;34.21;52072.09;5073161;28;20195;-81
2024/03/29 06:50:09;;;;;;;2.40;0.60;;;;;;;-145.69;35.22;52111.69;5073207;28;20222;-81
2024/03/29 06:52:36;;;;;;;0.80;0.50;;;;;;;-145.69;36.14;52095.84;5073099;28;20650;-83
2024/03/29 06:55:03;;;;;;;0.50;0.50;;;;;;;-145.69;36.54;52064.16;5060523;28;20207;-81
2024/03/29 06:57:31;;;;;;;1.20;0.50;;;;;;;-145.69;38.58;52085.94;5062856;28;20225;-83
2024/03/29 06:59:58;;;;;;;0.57;0.57;;;;;;;-145.69;38.63;52095.84;5073154;28;20202;-82
2024/03/29 07:02:24;;;;;;;1.98;0.50;;;;;;;-145.69;40.03;52087.94;5072905;28;20206;-82
2024/03/29 07:04:51;;;;;;;1.00;0.50;;;;;;;-145.69;38.87;52060.22;5072340;28;20268;-83
2024/03/29 07:07:17;;;;;;;1.23;0.60;;;;;;;-145.69;38.87;52103.78;5072437;28;20206;-82
2024/03/29 07:09:44;;;;;;;0.70;0.70;;;;;;;-145.69;38.56;52080.00;5072796;28;20201;-81
2024/03/29 07:12:10;;;;;;;1.85;0.70;;;;;;;-145.69;37.99;52078.03;5073127;28;20725;-83
2024/03/29 07:14:38;;;;;;;0.88;0.68;;;;;;;-145.69;37.66;52072.09;5072551;28;20194;-83
2024/03/29 07:17:05;;;;;;;1.13;0.57;;;;;;;-145.69;38.01;52087.94;5070559;28;20547;-84
2024/03/29 07:19:31;;;;;;;3.33;0.75;;;;;;;-145.69;36.95;52082.00;5071699;28;20195;-82
2024/03/29 07:21:57;;;;;;;0.73;0.50;;;;;;;-145.69;36.08;52107.72;5072417;28;20539;-82
2024/03/29 07:24:24;;;;;;;1.15;0.50;;;;;;;-145.69;35.28;52074.06;5072418;28;20203;-81
2024/03/29 07:26:50;;;;;;;0.63;0.60;;;;;;;-145.69;34.08;52048.31;5072413;28;20658;-82
2024/03/29 07:29:17;;;;;;;1.65;0.57;;;;;;;-145.69;34.52;52046.34;5072649;28;20199;-82
2024/03/29 07:31:45;;;;;;;0.60;0.60;;;;;;;-145.69;34.04;52048.31;5072526;28;20226;-80
2024/03/29 07:34:11;;;;;;;0.63;0.50;;;;;;;-145.69;34.29;52072.09;5072081;28;20264;-80
2024/03/29 07:36:39;;;;;;;2.30;0.40;;;;;;;-145.69;33.31;52076.03;5071978;28;20206;-79
2024/03/29 07:39:06;;;;;;;0.40;0.40;;;;;;;-145.69;33.86;52072.09;5052310;28;20207;-81
2024/03/29 07:41:32;;;;;;;0.50;0.35;;;;;;;-145.69;33.95;52028.53;5052555;28;20294;-83
2024/03/29 07:44:00;;;;;;;0.60;0.60;;;;;;;-145.69;34.40;52044.38;5052314;28;20204;-81
2024/03/29 07:46:29;;;;;;;0.43;0.40;;;;;;;-145.69;34.23;52068.13;5066866;28;20233;-82
2024/03/29 07:48:57;;;;;;;0.63;0.63;;;;;;;-145.69;33.78;52056.25;5071851;28;20200;-81
2024/03/29 07:51:23;;;;;;;4.18;0.60;;;;;;;-145.69;34.45;52062.19;5064101;28;20219;-81
2024/03/29 07:53:50;;;;;;;0.70;0.50;;;;;;;-145.69;34.79;52060.22;5072302;28;20198;-82
2024/03/29 07:56:16;;;;;;;0.70;0.50;;;;;;;-145.69;34.43;52042.38;5071750;28;20203;-83
2024/03/29 07:58:43;;;;;;;0.40;0.40;;;;;;;-145.69;34.96;52103.78;5072481;28;20199;-81
2024/03/29 08:01:09;;;;;;;0.50;0.50;;;;;;;-145.69;35.00;52091.88;5071744;28;20202;-81
2024/03/29 08:03:36;;;;;;;1.73;0.60;;;;;;;-145.69;33.90;52068.13;5071286;28;20600;-81
2024/03/29 08:06:05;;;;;;;0.47;0.45;;;;;;;-145.69;34.13;52062.19;5071543;28;20194;-81
2024/03/29 08:08:32;;;;;;;1.25;0.60;;;;;;;-145.69;33.77;52091.88;5071775;28;20722;-81
2024/03/29 08:10:59;;;;;;;0.57;0.57;;;;;;;-145.69;33.75;52040.41;5073263;28;20226;-80
2024/03/29 08:13:25;;;;;;;0.40;0.40;;;;;;;-145.69;33.46;52068.13;5075904;28;20249;-80
2024/03/29 08:15:57;;;;;;;2.42;0.45;;;;;;;-145.69;32.66;52030.50;5075999;28;20230;-80
2024/03/29 08:18:23;;;;;;;2.88;0.47;;;;;;;-145.69;32.66;52022.59;5073442;28;20191;-79
2024/03/29 08:20:50;;;;;;;1.35;0.50;;;;;;;-145.69;33.59;52024.56;5074314;28;20240;-79
2024/03/29 08:23:18;;;;;;;0.65;0.50;;;;;;;-145.69;33.08;52012.69;5076043;28;20199;-81
2024/03/29 08:25:44;;;;;;;1.00;0.40;;;;;;;-145.69;32.57;52044.38;5076279;28;20209;-80
2024/03/29 08:28:11;;;;;;;0.50;0.50;;;;;;;-145.69;31.75;52042.38;5068338;28;20298;-79
2024/03/29 08:30:37;;;;;;;0.88;0.40;;;;;;;-145.69;31.41;52028.53;5058163;28;20221;-79
2024/03/29 08:33:04;;;;;;;3.25;0.50;;;;;;;-145.69;32.05;52008.72;5075602;28;20202;-80
2024/03/29 08:35:32;;;;;;;0.65;0.40;;;;;;;-145.69;31.64;52004.75;5076107;28;20210;-79
2024/03/29 08:37:59;;;;;;;0.50;0.50;;;;;;;-145.69;31.42;52032.47;5075475;28;20198;-79
2024/03/29 08:40:29;;;;;;;1.00;0.82;;;;;;;-145.69;31.12;51996.84;5075717;28;20206;-79
2024/03/29 08:42:55;;;;;;;0.85;0.40;;;;;;;-145.69;31.35;52018.63;5076051;28;20213;-81
2024/03/29 08:45:22;;;;;;;3.47;0.82;;;;;;;-145.69;30.98;52012.69;5066157;28;20210;-80
2024/03/29 08:47:48;;;;;;;3.75;0.60;;;;;;;-145.69;30.62;51949.31;5055609;28;20211;-80
2024/03/29 08:50:15;;;;;;;3.42;0.40;;;;;;;-145.69;29.90;51953.28;5055316;28;20199;-80
2024/03/29 08:52:42;;;;;;;1.40;1.00;;;;;;;-145.69;30.37;51963.19;5055390;28;20195;-81
2024/03/29 08:55:09;;;;;;;1.65;0.70;;;;;;;-145.69;29.75;51988.91;5068512;28;20206;-80
2024/03/29 08:57:36;;;;;;;3.33;0.60;;;;;;;-145.69;30.19;51965.16;5075807;28;20206;-80
2024/03/29 09:00:04;;;;;;;1.27;0.88;;;;;;;-145.69;29.71;51988.91;5065948;28;20192;-80
2024/03/29 09:02:31;;;;;;;0.88;0.70;;;;;;;-145.69;30.50;51965.16;5072658;28;20195;-80
2024/03/29 09:04:58;;;;;;;0.85;0.75;;;;;;;-145.69;30.65;51986.94;5075587;28;20546;-81
2024/03/29 09:07:24;;;;;;;3.08;1.50;;;;;;;-145.69;30.60;51982.97;5075005;28;20206;-79
2024/03/29 09:09:51;;;;;;;2.60;1.30;;;;;;;-145.69;30.53;51981.00;5075425;28;20198;-81
2024/03/29 09:12:18;;;;;;;5.78;0.90;;;;;;;-145.69;30.98;51996.84;5075307;28;20643;-80
2024/03/29 09:14:45;;;;;;;2.65;1.30;;;;;;;-145.69;30.86;51935.47;5074337;28;20446;-80
2024/03/29 09:17:12;;;;;;;4.30;1.17;;;;;;;-145.69;30.73;51965.16;5075059;28;20203;-79
2024/03/29 09:19:38;;;;;;;1.70;1.00;;;;;;;-145.69;30.35;51986.94;5075110;28;20203;-80
2024/03/29 09:22:05;;;;;;;0.88;0.57;;;;;;;-145.69;30.16;51990.91;5074848;28;20210;-82
2024/03/29 09:24:34;;;;;;;0.52;0.52;;;;;;;-145.69;29.96;51981.00;5075209;28;20260;-82
2024/03/29 09:27:00;;;;;;;2.25;0.50;;;;;;;-145.69;29.71;51961.19;5074608;28;20210;-81
2024/03/29 09:29:28;;;;;;;0.57;0.43;;;;;;;-145.69;29.26;51969.13;5074674;28;20293;-81
2024/03/29 09:31:56;;;;;;;1.30;0.40;;;;;;;-145.69;29.82;51941.41;5074857;28;20272;-81
2024/03/29 09:34:23;;;;;;;0.45;0.40;;;;;;;-145.69;29.67;51957.25;5075238;28;20194;-81
2024/03/29 09:36:49;;;;;;;0.40;0.40;;;;;;;-145.69;29.41;51933.47;5073080;28;20213;-82
2024/03/29 09:39:16;;;;;;;0.50;0.45;;;;;;;-145.69;29.07;51961.19;5074784;28;20203;-81
2024/03/29 09:41:45;;;;;;;3.30;0.63;;;;;;;-145.69;29.53;51941.41;5067517;28;20202;-80
2024/03/29 09:44:12;;;;;;;1.13;0.57;;;;;;;-145.69;30.01;51917.63;5061876;28;20198;-81
2024/03/29 09:46:40;;;;;;;1.48;0.50;;;;;;;-145.69;29.65;51941.41;5075332;28;20208;-81
2024/03/29 09:49:08;;;;;;;1.75;0.70;;;;;;;-145.69;29.24;51927.53;5075070;28;20302;-83
2024/03/29 09:51:35;;;;;;;1.27;0.55;;;;;;;-145.69;29.61;51953.28;5074864;28;20227;-82
2024/03/29 09:54:03;;;;;;;0.45;0.40;;;;;;;-145.69;29.54;51943.38;5075047;28;20195;-83
2024/03/29 09:56:30;;;;;;;0.90;0.47;;;;;;;-145.69;29.52;51923.56;5074619;28;20203;-83
2024/03/29 09:58:57;;;;;;;0.40;0.40;;;;;;;-145.69;29.27;51941.41;5075169;28;20252;-83
2024/03/29 10:01:24;;;;;;;0.50;0.40;;;;;;;-145.69;29.29;51927.53;5074432;28;20195;-82
2024/03/29 10:03:52;;;;;;;0.70;0.55;;;;;;;-145.69;28.63;51925.56;5074597;28;20198;-81
2024/03/29 10:06:20;;;;;;;0.52;0.50;;;;;;;-145.69;29.41;51919.63;5074444;28;20198;-81
2024/03/29 10:08:47;;;;;;;1.10;0.50;;;;;;;-145.69;29.17;51915.66;5073943;28;20622;-80
2024/03/29 10:11:16;;;;;;;0.82;0.60;;;;;;;-145.69;27.87;51905.75;5074077;28;20265;-80
2024/03/29 10:13:43;;;;;;;1.65;0.40;;;;;;;-145.69;28.60;51893.88;5074487;28;20194;-81
2024/03/29 10:16:11;;;;;;;0.95;0.50;;;;;;;-145.69;28.52;51911.69;5074339;28;20242;-79
2024/03/29 10:18:37;;;;;;;0.75;0.45;;;;;;;-145.69;28.11;51893.88;5074343;28;20258;-81
2024/03/29 10:21:05;;;;;;;0.30;0.30;;;;;;;-145.69;28.17;51933.47;5073795;28;20252;-79
2024/03/29 10:23:35;;;;;;;0.65;0.50;;;;;;;-145.69;28.84;51889.91;5074174;28;20209;-80
2024/03/29 10:26:02;;;;;;;1.08;0.50;;;;;;;-145.69;28.96;51897.84;5074202;28;20665;-81
2024/03/29 10:28:33;;;;;;;1.00;0.40;;;;;;;-145.69;28.58;51905.75;5074086;28;20199;-79
2024/03/29 10:30:59;;;;;;;1.40;0.50;;;;;;;-145.69;28.22;51870.13;5073647;28;20308;-79
2024/03/29 10:33:29;;;;;;;0.95;0.43;;;;;;;-145.69;27.25;51895.84;5073082;28;20206;-79
2024/03/29 10:35:56;;;;;;;3.03;0.40;;;;;;;-145.69;27.39;51878.03;5073750;28;20233;-79
2024/03/29 10:38:23;;;;;;;0.40;0.40;;;;;;;-145.69;27.39;51909.72;5074235;28;20234;-79
2024/03/29 10:40:52;;;;;;;0.50;0.50;;;;;;;-145.69;27.98;51878.03;5074218;28;20206;-81
2024/03/29 10:43:20;;;;;;;0.80;0.50;;;;;;;-145.69;27.46;51872.09;5073576;28;20203;-82
2024/03/29 10:45:48;;;;;;;1.02;0.50;;;;;;;-145.69;28.11;51864.16;5074070;28;20210;-82
2024/03/29 10:48:16;;;;;;;0.47;0.47;;;;;;;-145.69;27.33;51862.19;5073847;28;20290;-82
2024/03/29 10:50:44;;;;;;;0.50;0.30;;;;;;;-145.69;27.21;51889.91;5073460;28;20206;-82
2024/03/29 10:53:11;;;;;;;2.97;0.80;;;;;;;-145.69;29.79;51866.16;5073523;28;20202;-81
2024/03/29 10:55:38;;;;;;;1.10;0.70;;;;;;;-145.69;31.61;51895.84;5063824;28;20199;-79
2024/03/29 10:58:06;;;;;;;1.45;0.70;;;;;;;-145.69;32.19;51864.16;5067265;28;20203;-81
2024/03/29 11:00:40;;;;;;;2.78;0.77;;;;;;;-145.69;33.38;51897.84;5063993;28;20191;-81
2024/03/29 11:03:15;;;;;;;2.15;0.80;;;;;;;-145.69;33.49;51905.75;5058623;28;20210;-81
2024/03/29 11:05:47;;;;;;;1.45;1.02;;;;;;;-145.69;33.89;51907.72;5073255;28;20248;-81
2024/03/29 11:08:20;;;;;;;1.73;1.08;;;;;;;-145.69;34.12;51957.25;5073554;28;20213;-80
2024/03/29 11:10:50;;;;;;;2.38;1.15;;;;;;;-145.69;34.61;51901.78;5073272;28;20236;-80
2024/03/29 11:13:28;;;;;;;2.80;1.25;;;;;;;-145.69;35.28;51933.47;5072848;28;20198;-82
2024/03/29 11:15:54;;;;;;;2.88;1.20;;;;;;;-145.69;36.03;51925.56;5072715;28;20222;-81
2024/03/29 11:18:24;;;;;;;1.48;1.17;;;;;;;-145.69;35.98;51937.44;5073183;28;20202;-81
2024/03/29 11:20:52;;;;;;;2.78;1.20;;;;;;;-145.69;36.36;51939.41;5073277;28;20209;-81
2024/03/29 11:23:20;;;;;;;3.53;1.27;;;;;;;-145.69;36.81;51949.31;5072975;28;20198;-81
2024/03/29 11:25:49;;;;;;;1.70;0.90;;;;;;;-145.69;35.89;51965.16;5072794;28;20665;-80
2024/03/29 11:28:26;;;;;;;2.25;1.20;;;;;;;-145.69;35.93;51941.41;5073055;28;20202;-81
2024/03/29 11:30:54;;;;;;;1.83;1.17;;;;;;;-145.69;36.28;51943.38;5072833;28;20205;-82
2024/03/29 11:33:30;;;;;;;2.17;1.10;;;;;;;-145.69;35.70;51943.38;5072828;28;20203;-80
2024/03/29 11:35:57;;;;;;;1.38;0.90;;;;;;;-145.69;35.96;51947.34;5072985;28;20209;-82
2024/03/29 11:38:30;;;;;;;2.63;0.80;;;;;;;-145.69;36.42;51919.63;5072971;28;20677;-80
2024/03/29 11:41:08;;;;;;;2.95;0.90;;;;;;;-145.69;35.78;51961.19;5073127;28;20207;-81
2024/03/29 11:43:37;;;;;;;2.00;1.27;;;;;;;-145.69;36.03;51925.56;5072822;28;20194;-81
2024/03/29 11:46:06;;;;;;;1.75;1.05;;;;;;;-145.69;36.33;51937.44;5072329;28;20675;-81
2024/03/29 11:48:33;;;;;;;1.63;1.13;;;;;;;-145.69;35.93;51927.53;5072781;28;20218;-80
2024/03/29 11:51:00;;;;;;;1.20;1.10;;;;;;;-145.69;36.42;51961.19;5072650;28;20214;-81
2024/03/29 11:53:29;;;;;;;3.90;1.17;;;;;;;-145.69;35.90;51941.41;5072932;28;20222;-81
2024/03/29 11:55:56;;;;;;;3.05;1.40;;;;;;;-145.69;36.39;51919.63;5072848;28;20256;-81
2024/03/29 11:58:23;;;;;;;1.92;1.27;;;;;;;-145.69;36.99;51949.31;5071913;28;20195;-80
2024/03/29 12:00:52;;;;;;;1.85;1.13;;;;;;;-145.69;35.96;51951.28;5072334;28;20847;-81
2024/03/29 12:03:20;;;;;;;2.75;1.20;;;;;;;-145.69;36.39;51945.34;5072466;28;20868;-81
2024/03/29 12:05:48;;;;;;;3.63;1.20;;;;;;;-145.69;36.37;51933.47;5072546;28;20238;-81
2024/03/29 12:08:15;;;;;;;3.17;1.13;;;;;;;-145.69;36.74;51947.34;5072604;28;20403;-80
2024/03/29 12:10:41;;;;;;;1.75;1.10;;;;;;;-145.69;36.52;51957.25;5072160;28;20203;-80
2024/03/29 12:13:08;;;;;;;4.35;1.20;;;;;;;-145.69;37.16;51953.28;5072493;28;20226;-80
2024/03/29 12:15:35;;;;;;;2.47;1.15;;;;;;;-145.69;36.52;51953.28;5072105;28;20226;-80
2024/03/29 12:18:05;;;;;;;1.80;1.00;;;;;;;-145.69;36.86;51949.31;5071953;28;20730;-81
2024/03/29 12:20:32;;;;;;;4.57;1.42;;;;;;;-145.69;36.75;51965.16;5072162;28;20194;-82
2024/03/29 12:22:59;;;;;;;3.70;1.40;;;;;;;-145.69;37.14;51933.47;5072304;28;20711;-80
2024/03/29 12:25:26;;;;;;;3.75;1.50;;;;;;;-145.69;36.75;51984.97;5072026;28;20650;-82
2024/03/29 12:27:53;;;;;;;2.03;1.33;;;;;;;-145.69;36.14;51913.69;5072276;28;20209;-81
2024/03/29 12:30:20;;;;;;;4.25;1.08;;;;;;;-145.69;36.53;51984.97;5071741;28;20689;-81
2024/03/29 12:32:47;;;;;;;3.22;1.40;;;;;;;-145.69;37.66;51994.88;5072109;28;20230;-81
2024/03/29 12:35:16;;;;;;;1.85;1.08;;;;;;;-145.69;37.39;51959.22;5072258;28;20207;-81
2024/03/29 12:37:48;;;;;;;1.55;1.02;;;;;;;-145.69;37.85;51957.25;5072346;28;20210;-80
2024/03/29 12:40:21;;;;;;;3.72;1.48;;;;;;;-145.69;38.34;51961.19;5072216;28;20199;-81
2024/03/29 12:42:48;;;;;;;2.17;1.23;;;;;;;-145.69;38.78;51996.84;5072371;28;20206;-81
2024/03/29 12:45:14;;;;;;;1.67;1.27;;;;;;;-145.69;38.04;52000.81;5071582;28;20742;-81
2024/03/29 12:47:41;;;;;;;1.73;1.00;;;;;;;-145.69;38.57;52000.81;5069768;28;20202;-81
2024/03/29 12:50:08;;;;;;;2.05;0.93;;;;;;;-145.69;38.37;51994.88;5051953;28;20289;-81
2024/03/29 12:52:40;;;;;;;1.50;1.10;;;;;;;-145.69;38.07;51996.84;5051830;28;20227;-81
2024/03/29 12:55:08;;;;;;;1.85;1.17;;;;;;;-145.69;38.37;51981.00;5052052;28;20199;-80
2024/03/29 12:57:34;;;;;;;1.67;1.00;;;;;;;-145.69;38.24;52000.81;5072152;28;20283;-80
2024/03/29 13:00:01;;;;;;;2.97;1.10;;;;;;;-145.69;37.60;51988.91;5075853;28;20569;-80
2024/03/29 13:02:27;;;;;;;2.80;1.10;;;;;;;-145.69;37.95;51988.91;5075774;28;20234;-79
2024/03/29 13:04:54;;;;;;;2.53;0.95;;;;;;;-145.69;37.99;51984.97;5075546;28;20195;-80